Time;durP1;ratioP1;P1;durP2;ratioP2;P2;SDS_P1;SDS_P2;PMS_P1;PMS_P2;Temp;Humidity;BMP_temperature;BMP_pressure;BME280_temperature;BME280_humidity;BME280_pressure;Samples;Min_cycle;Max_cycle;Signal;HPM_P1;HPM_P2
2021/04/07 00:01:48;;;;;;;2.40;2.10;;;;;;;1.64;100.00;102264.63;1867939;75;26226;-70
2021/04/07 00:04:19;;;;;;;4.80;2.23;;;;;;;1.76;100.00;102267.20;1868000;77;26682;-70
2021/04/07 00:06:48;;;;;;;1.70;1.60;;;;;;;1.72;100.00;102259.04;1867905;74;26795;-73
2021/04/07 00:09:18;;;;;;;2.90;2.13;;;;;;;1.71;100.00;102263.66;1868039;77;26622;-72
2021/04/07 00:11:48;;;;;;;3.33;2.30;;;;;;;1.69;100.00;102268.50;1868072;77;26641;-72
2021/04/07 00:14:18;;;;;;;3.50;2.30;;;;;;;1.66;100.00;102262.56;1868181;76;26192;-72
2021/04/07 00:16:49;;;;;;;2.33;2.13;;;;;;;1.68;100.00;102258.58;1868216;77;26679;-72
2021/04/07 00:19:19;;;;;;;3.33;2.30;;;;;;;1.59;100.00;102251.52;1868225;77;26249;-72
2021/04/07 00:21:48;;;;;;;3.07;1.90;;;;;;;1.61;100.00;102256.30;1867985;77;26179;-72
2021/04/07 00:24:18;;;;;;;3.57;2.10;;;;;;;1.51;100.00;102258.98;1867966;77;26249;-72
2021/04/07 00:26:48;;;;;;;4.83;2.17;;;;;;;1.64;100.00;102260.52;1867957;77;26734;-72
2021/04/07 00:29:18;;;;;;;2.47;2.27;;;;;;;1.71;100.00;102266.95;1867998;77;26637;-71
2021/04/07 00:31:48;;;;;;;3.00;2.00;;;;;;;1.70;100.00;102263.87;1868161;76;26308;-71
2021/04/07 00:34:17;;;;;;;3.80;2.30;;;;;;;1.60;100.00;102270.16;1868097;77;26680;-72
2021/04/07 00:36:47;;;;;;;5.30;2.20;;;;;;;1.37;100.00;102271.65;1868089;77;26234;-72
2021/04/07 00:39:17;;;;;;;3.57;2.50;;;;;;;1.44;100.00;102272.61;1868179;77;26668;-72
2021/04/07 00:41:47;;;;;;;6.13;2.53;;;;;;;1.49;100.00;102277.00;1868084;77;26237;-72
2021/04/07 00:44:17;;;;;;;4.37;2.70;;;;;;;1.50;100.00;102273.19;1868083;77;26245;-71
2021/04/07 00:46:47;;;;;;;3.00;2.23;;;;;;;1.50;100.00;102273.19;1868052;77;26229;-71
2021/04/07 00:49:16;;;;;;;3.43;2.10;;;;;;;1.54;100.00;102265.47;1868184;77;26182;-71
2021/04/07 00:51:46;;;;;;;3.53;2.37;;;;;;;1.52;100.00;102275.75;1868173;77;26289;-70
2021/04/07 00:54:16;;;;;;;2.97;2.40;;;;;;;1.59;100.00;102274.79;1868138;77;26619;-71
2021/04/07 00:56:46;;;;;;;3.20;2.60;;;;;;;1.67;100.00;102276.59;1868256;77;26183;-70
2021/04/07 00:59:18;;;;;;;3.63;2.50;;;;;;;1.42;100.00;102276.04;1868168;77;26274;-70
2021/04/07 01:01:48;;;;;;;2.90;2.50;;;;;;;1.62;100.00;102274.95;1868087;75;26238;-70
2021/04/07 01:04:21;;;;;;;3.00;2.13;;;;;;;1.59;100.00;102273.94;1868215;77;26284;-71
2021/04/07 01:06:53;;;;;;;2.60;2.40;;;;;;;1.46;100.00;102266.92;1868007;77;26195;-71
2021/04/07 01:09:23;;;;;;;3.67;2.53;;;;;;;1.47;100.00;102262.63;1868145;74;26242;-71
2021/04/07 01:11:53;;;;;;;3.53;2.50;;;;;;;1.48;100.00;102268.97;1868100;77;26187;-71
2021/04/07 01:14:23;;;;;;;4.43;2.57;;;;;;;1.43;100.00;102265.94;1868115;77;26183;-71
2021/04/07 01:16:53;;;;;;;4.00;3.30;;;;;;;1.42;100.00;102265.61;1868188;77;26195;-70
2021/04/07 01:19:26;;;;;;;5.63;2.70;;;;;;;1.22;100.00;102270.82;1868236;77;26203;-72
2021/04/07 01:21:56;;;;;;;3.63;3.00;;;;;;;1.29;100.00;102271.75;1868246;77;26269;-72
2021/04/07 01:24:28;;;;;;;5.03;3.20;;;;;;;1.26;100.00;102277.09;1868015;77;26260;-70
2021/04/07 01:26:57;;;;;;;4.07;3.60;;;;;;;1.31;100.00;102271.91;1868041;77;26214;-73
2021/04/07 01:29:27;;;;;;;3.87;3.47;;;;;;;1.37;100.00;102270.28;1868139;77;26653;-73
2021/04/07 01:31:58;;;;;;;5.33;3.80;;;;;;;1.44;100.00;102269.02;1868136;77;26717;-72
2021/04/07 01:34:31;;;;;;;4.27;3.87;;;;;;;1.54;100.00;102267.66;1868154;77;26288;-72
2021/04/07 01:37:01;;;;;;;5.63;3.70;;;;;;;1.37;100.00;102270.28;1868117;77;26631;-72
2021/04/07 01:39:32;;;;;;;6.63;4.13;;;;;;;1.33;100.00;102273.92;1868148;77;26256;-72
2021/04/07 01:42:02;;;;;;;6.70;4.50;;;;;;;1.29;100.00;102268.50;1868127;77;26691;-72
2021/04/07 01:44:33;;;;;;;5.43;3.93;;;;;;;1.27;100.00;102265.12;1868085;77;26252;-71
2021/04/07 01:47:03;;;;;;;6.43;4.07;;;;;;;1.22;100.00;102267.57;1868052;77;26275;-72
2021/04/07 01:49:35;;;;;;;7.47;4.53;;;;;;;1.33;100.00;102267.59;1868064;77;26264;-71
2021/04/07 01:52:06;;;;;;;7.10;4.10;;;;;;;1.31;100.00;102276.53;1868056;77;26203;-71
2021/04/07 01:54:37;;;;;;;6.37;4.00;;;;;;;1.34;100.00;102266.05;1868038;77;26237;-71
2021/04/07 01:57:09;;;;;;;6.40;3.73;;;;;;;1.32;100.00;102276.88;1868140;77;26199;-71
2021/04/07 01:59:38;;;;;;;4.00;3.53;;;;;;;1.40;100.00;102271.29;1868075;77;26720;-71
2021/04/07 02:02:08;;;;;;;6.87;4.03;;;;;;;1.32;100.00;102276.88;1868093;75;26215;-71
2021/04/07 02:04:38;;;;;;;5.90;3.83;;;;;;;1.30;100.00;102281.67;1868048;77;26743;-70
2021/04/07 02:07:12;;;;;;;4.67;3.60;;;;;;;1.32;100.00;102284.56;1868168;77;26250;-70
2021/04/07 02:09:43;;;;;;;5.47;3.80;;;;;;;1.37;100.00;102285.34;1868111;74;26250;-70
2021/04/07 02:12:13;;;;;;;5.47;3.63;;;;;;;1.31;100.00;102285.59;1868041;77;26265;-71
2021/04/07 02:14:43;;;;;;;4.97;3.90;;;;;;;1.38;100.00;102279.69;1868121;77;26633;-71
2021/04/07 02:17:13;;;;;;;4.07;3.03;;;;;;;1.40;100.00;102282.76;1868033;77;26198;-71
2021/04/07 02:19:43;;;;;;;4.60;3.10;;;;;;;1.31;100.00;102280.64;1868149;77;26243;-71
2021/04/07 02:22:15;;;;;;;4.93;3.23;;;;;;;1.46;100.00;102276.50;1868075;77;26264;-71
2021/04/07 02:24:47;;;;;;;3.87;2.60;;;;;;;1.42;100.00;102284.25;1868206;77;26630;-71
2021/04/07 02:27:20;;;;;;;3.80;3.10;;;;;;;1.45;100.00;102276.20;1868025;77;26629;-70
2021/04/07 02:29:51;;;;;;;3.17;2.87;;;;;;;1.44;100.00;102273.98;1868032;77;26629;-71
2021/04/07 02:32:23;;;;;;;3.87;3.13;;;;;;;1.42;100.00;102270.56;1868090;77;26292;-70
2021/04/07 02:34:53;;;;;;;6.03;3.00;;;;;;;1.33;100.00;102279.40;1868117;77;26198;-71
2021/04/07 02:37:23;;;;;;;5.50;2.90;;;;;;;1.27;100.00;102280.17;1868084;77;26763;-71
2021/04/07 02:39:53;;;;;;;4.33;2.97;;;;;;;1.41;100.00;102271.63;1868131;77;26273;-71
2021/04/07 02:42:24;;;;;;;3.07;2.77;;;;;;;1.35;100.00;102273.75;1868118;77;26196;-71
2021/04/07 02:44:54;;;;;;;4.93;3.30;;;;;;;1.30;100.00;102283.04;1867991;77;26210;-71
2021/04/07 02:47:23;;;;;;;5.60;3.00;;;;;;;1.23;100.00;102286.22;1868098;77;26272;-71
2021/04/07 02:49:54;;;;;;;5.40;3.00;;;;;;;1.32;100.00;102281.83;1868106;76;26301;-71
2021/04/07 02:52:24;;;;;;;5.60;3.10;;;;;;;1.32;100.00;102279.61;1867971;77;26272;-70
2021/04/07 02:54:54;;;;;;;3.13;2.83;;;;;;;1.25;100.00;102285.48;1868127;77;26272;-71
2021/04/07 02:57:24;;;;;;;3.77;3.03;;;;;;;1.21;100.00;102282.80;1868039;77;26179;-70
2021/04/07 02:59:53;;;;;;;3.27;2.50;;;;;;;1.29;100.00;102281.33;1868080;77;26779;-71
2021/04/07 03:02:23;;;;;;;5.20;3.23;;;;;;;1.37;100.00;102285.34;1867969;75;26417;-70
2021/04/07 03:04:53;;;;;;;3.77;2.90;;;;;;;1.30;100.00;102289.88;1868188;77;26650;-70
2021/04/07 03:07:23;;;;;;;4.33;3.43;;;;;;;1.26;100.00;102283.94;1868098;77;26254;-70
2021/04/07 03:09:53;;;;;;;3.67;2.73;;;;;;;1.25;100.00;102278.64;1868096;74;26246;-70
2021/04/07 03:12:23;;;;;;;3.17;2.50;;;;;;;1.22;100.00;102279.88;1868063;77;26622;-69
2021/04/07 03:15:16;;;;;;;3.57;2.90;;;;;;;1.17;100.00;102281.48;1971955;73;32841;-71
2021/04/07 03:17:46;;;;;;;4.47;2.77;;;;;;;1.05;100.00;102285.21;1934963;74;26177;-71
2021/04/07 03:20:17;;;;;;;3.43;2.60;;;;;;;1.05;100.00;102293.94;1934717;74;26184;-71
2021/04/07 03:22:46;;;;;;;6.23;3.00;;;;;;;1.13;100.00;102285.63;1934750;74;26189;-70
2021/04/07 03:25:16;;;;;;;3.83;2.40;;;;;;;1.14;100.00;102292.81;1934856;74;26604;-71
2021/04/07 03:27:46;;;;;;;5.13;2.80;;;;;;;1.10;100.00;102295.08;1934898;74;26170;-71
2021/04/07 03:30:18;;;;;;;4.87;2.63;;;;;;;1.16;100.00;102297.56;1934730;74;26263;-71
2021/04/07 03:32:51;;;;;;;3.37;2.57;;;;;;;1.17;100.00;102298.75;1934725;74;26243;-71
2021/04/07 03:35:21;;;;;;;4.10;2.70;;;;;;;1.00;100.00;102295.86;1934731;74;26250;-71
2021/04/07 03:37:51;;;;;;;3.33;2.53;;;;;;;1.11;100.00;102288.58;1934715;74;26181;-71
2021/04/07 03:40:20;;;;;;;2.77;2.20;;;;;;;1.02;100.00;102291.58;1934733;74;26185;-71
2021/04/07 03:42:50;;;;;;;3.10;2.40;;;;;;;1.01;100.00;102292.61;1934719;74;26701;-71
2021/04/07 03:45:21;;;;;;;3.17;2.17;;;;;;;1.05;100.00;102295.30;1934720;74;26635;-71
2021/04/07 03:47:52;;;;;;;4.40;2.53;;;;;;;1.07;100.00;102289.14;1934998;74;26667;-72
2021/04/07 03:50:21;;;;;;;2.57;2.13;;;;;;;1.19;100.00;102286.27;1934747;74;26247;-72
2021/04/07 03:52:51;;;;;;;2.47;2.07;;;;;;;1.20;100.00;102287.94;1941982;73;26595;-71
2021/04/07 03:55:21;;;;;;;3.20;2.30;;;;;;;1.13;100.00;102291.11;1952742;73;26261;-72
2021/04/07 03:57:51;;;;;;;5.40;2.70;;;;;;;1.16;100.00;102292.09;1952459;73;26177;-71
2021/04/07 04:00:22;;;;;;;3.10;2.07;;;;;;;1.27;100.00;102296.59;1928829;73;932829;-72
2021/04/07 04:02:52;;;;;;;5.63;1.90;;;;;;;1.18;100.00;102299.09;1836773;77;26760;-71
2021/04/07 04:05:22;;;;;;;2.43;2.23;;;;;;;1.20;100.00;102292.89;1836061;77;26353;-71
2021/04/07 04:07:52;;;;;;;4.70;2.63;;;;;;;1.20;100.00;102293.41;1836148;78;26293;-71
2021/04/07 04:10:22;;;;;;;3.27;2.20;;;;;;;1.12;100.00;102297.61;1836122;78;26191;-72
2021/04/07 04:12:52;;;;;;;6.03;2.67;;;;;;;1.13;100.00;102296.58;1835982;78;26295;-71
2021/04/07 04:15:22;;;;;;;2.33;1.97;;;;;;;1.17;100.00;102300.64;1842962;77;26357;-72
2021/04/07 04:17:53;;;;;;;4.13;2.30;;;;;;;1.09;100.00;102294.75;1843924;78;26306;-71
2021/04/07 04:20:23;;;;;;;5.57;2.50;;;;;;;1.15;100.00;102299.99;1843980;77;26415;-72
2021/04/07 04:22:54;;;;;;;3.77;2.60;;;;;;;1.04;100.00;102304.54;1844001;78;26321;-72
2021/04/07 04:25:24;;;;;;;4.23;2.00;;;;;;;0.94;100.00;102299.88;1843624;77;26270;-72
2021/04/07 04:27:54;;;;;;;4.00;2.20;;;;;;;1.04;100.00;102303.17;1843350;78;26204;-72
2021/04/07 04:30:27;;;;;;;3.77;2.13;;;;;;;0.95;100.00;102305.14;1843371;78;26215;-72
2021/04/07 04:32:57;;;;;;;3.87;1.90;;;;;;;0.95;100.00;102304.29;1843321;78;26278;-72
2021/04/07 04:35:27;;;;;;;3.20;2.20;;;;;;;1.18;100.00;102299.61;1843341;78;26225;-72
2021/04/07 04:37:57;;;;;;;2.73;2.43;;;;;;;1.14;100.00;102303.24;1843348;78;26215;-72
2021/04/07 04:40:27;;;;;;;2.30;2.10;;;;;;;1.16;100.00;102303.89;1843356;78;26314;-72
2021/04/07 04:42:57;;;;;;;4.20;2.13;;;;;;;1.16;100.00;102308.51;1843360;78;26199;-72
2021/04/07 04:45:26;;;;;;;2.60;2.30;;;;;;;1.17;100.00;102311.58;1843443;78;26343;-72
2021/04/07 04:47:56;;;;;;;4.40;2.17;;;;;;;1.02;100.00;102306.63;1843423;78;26699;-72
2021/04/07 04:50:26;;;;;;;3.20;2.00;;;;;;;0.95;100.00;102305.14;1843327;78;26232;-72
2021/04/07 04:52:56;;;;;;;2.40;2.00;;;;;;;0.95;100.00;102308.39;1843392;78;26221;-72
2021/04/07 04:55:26;;;;;;;2.40;1.87;;;;;;;0.82;100.00;102311.77;1843338;78;26731;-73
2021/04/07 04:57:56;;;;;;;4.70;2.33;;;;;;;0.86;100.00;102312.58;1843354;78;26204;-72
2021/04/07 05:00:26;;;;;;;3.23;2.17;;;;;;;0.86;100.00;102314.46;1843386;78;26248;-72
2021/04/07 05:02:56;;;;;;;7.47;2.40;;;;;;;0.79;100.00;102318.47;1843415;77;26235;-72
2021/04/07 05:05:26;;;;;;;2.67;2.10;;;;;;;0.89;100.00;102310.87;1843470;78;26705;-72
2021/04/07 05:07:56;;;;;;;2.30;1.90;;;;;;;0.99;100.00;102314.67;1843375;78;26199;-72
2021/04/07 05:10:26;;;;;;;2.47;2.03;;;;;;;0.91;100.00;102319.72;1843370;78;26274;-72
2021/04/07 05:12:56;;;;;;;2.70;2.10;;;;;;;0.95;100.00;102327.55;1843371;78;26246;-72
2021/04/07 05:15:26;;;;;;;2.83;1.97;;;;;;;0.96;100.00;102322.41;1843226;76;26259;-72
2021/04/07 05:17:55;;;;;;;2.30;1.80;;;;;;;0.98;100.00;102321.72;1843391;78;26288;-72
2021/04/07 05:20:26;;;;;;;11.63;2.90;;;;;;;1.01;100.00;102333.14;1843349;78;26663;-72
2021/04/07 05:22:56;;;;;;;2.83;2.10;;;;;;;0.90;100.00;102327.58;1843363;78;26699;-72
2021/04/07 05:25:26;;;;;;;2.13;1.93;;;;;;;0.82;100.00;102332.28;1843452;78;26274;-72
2021/04/07 05:27:56;;;;;;;2.90;2.00;;;;;;;0.81;100.00;102338.81;1843344;78;26719;-73
2021/04/07 05:30:27;;;;;;;3.07;2.17;;;;;;;0.81;100.00;102346.47;1843340;78;26683;-72
2021/04/07 05:32:57;;;;;;;4.53;2.23;;;;;;;0.86;100.00;102338.56;1843332;78;26346;-72
2021/04/07 05:35:27;;;;;;;4.10;2.00;;;;;;;0.74;100.00;102338.69;1843334;78;26627;-72
2021/04/07 05:37:56;;;;;;;4.37;2.43;;;;;;;0.71;100.00;102341.80;1843301;78;26241;-72
2021/04/07 05:40:26;;;;;;;2.33;1.90;;;;;;;0.61;100.00;102349.91;1843322;78;26774;-72
2021/04/07 05:42:56;;;;;;;6.40;2.10;;;;;;;0.86;100.00;102346.77;1843311;78;26322;-71
2021/04/07 05:45:26;;;;;;;2.40;1.77;;;;;;;0.86;100.00;102337.71;1843341;78;26678;-72
2021/04/07 05:47:56;;;;;;;2.80;2.20;;;;;;;1.01;100.00;102341.34;1843350;78;26659;-72
2021/04/07 05:50:25;;;;;;;3.93;2.50;;;;;;;0.98;100.00;102340.88;1843333;78;26204;-72
2021/04/07 05:52:55;;;;;;;4.60;2.07;;;;;;;1.10;100.00;102344.34;1843336;78;26789;-72
2021/04/07 05:55:25;;;;;;;3.47;2.00;;;;;;;1.01;100.00;102347.33;1843304;78;26261;-72
2021/04/07 05:57:59;;;;;;;2.87;2.03;;;;;;;1.01;100.00;102356.39;1843419;78;26299;-72
2021/04/07 06:00:29;;;;;;;4.53;2.10;;;;;;;0.91;100.00;102356.64;1843413;78;26297;-72
2021/04/07 06:03:00;;;;;;;3.33;2.00;;;;;;;1.19;100.00;102353.31;1843321;77;26236;-72
2021/04/07 06:05:31;;;;;;;2.43;2.20;;;;;;;1.09;100.00;102356.31;1843335;78;26236;-72
2021/04/07 06:08:02;;;;;;;3.53;2.00;;;;;;;1.17;100.00;102356.23;1843354;78;26694;-71
2021/04/07 06:10:33;;;;;;;2.70;1.83;;;;;;;1.25;100.00;102357.50;1843332;78;26695;-72
2021/04/07 06:13:03;;;;;;;5.23;2.30;;;;;;;1.28;100.00;102362.59;1843319;78;26272;-71
2021/04/07 06:15:34;;;;;;;1.90;1.80;;;;;;;1.19;100.00;102365.63;1843221;76;26267;-71
2021/04/07 06:18:05;;;;;;;3.33;1.80;;;;;;;1.32;100.00;102358.48;1843338;78;26245;-72
2021/04/07 06:20:38;;;;;;;2.87;1.80;;;;;;;1.48;100.00;102365.65;1843323;78;26315;-71
2021/04/07 06:23:10;;;;;;;4.30;1.97;;;;;;;1.49;100.00;102373.34;1843342;78;26229;-70
2021/04/07 06:25:43;;;;;;;2.93;2.37;;;;;;;1.52;100.00;102370.22;1843470;78;26215;-71
2021/04/07 06:28:14;;;;;;;2.80;2.30;;;;;;;1.51;100.00;102368.52;1843296;78;26524;-70
2021/04/07 06:30:45;;;;;;;2.83;1.77;;;;;;;1.45;100.00;102370.14;1843318;78;26212;-70
2021/04/07 06:33:18;;;;;;;2.27;1.70;;;;;;;1.40;100.00;102378.06;1843402;78;26203;-70
2021/04/07 06:35:50;;;;;;;4.93;1.97;;;;;;;1.50;100.00;102379.98;1843281;78;26674;-71
2021/04/07 06:38:21;;;;;;;3.20;1.70;;;;;;;1.67;100.00;102377.94;1843413;78;26232;-71
2021/04/07 06:40:51;;;;;;;3.80;1.80;;;;;;;1.60;100.00;102392.89;1843341;78;26240;-70
2021/04/07 06:43:23;;;;;;;2.80;2.10;;;;;;;1.70;100.00;102396.72;1843309;78;26703;-71
2021/04/07 06:45:54;;;;;;;2.83;1.73;;;;;;;1.72;100.00;102391.38;1843438;78;26336;-71
2021/04/07 06:48:24;;;;;;;2.63;1.87;;;;;;;1.73;100.00;102393.59;1843287;78;26248;-72
2021/04/07 06:50:56;;;;;;;3.37;1.70;;;;;;;1.85;100.00;102403.03;1843315;78;26318;-71
2021/04/07 06:53:29;;;;;;;4.93;2.23;;;;;;;1.83;100.00;102400.50;1843448;78;26647;-71
2021/04/07 06:56:00;;;;;;;1.67;1.57;;;;;;;1.95;100.00;102404.11;1843349;78;26651;-71
2021/04/07 06:58:30;;;;;;;3.77;1.83;;;;;;;1.81;100.00;102398.97;1843303;78;26742;-71
2021/04/07 07:00:59;;;;;;;4.50;2.17;;;;;;;1.84;100.00;102397.22;1843318;78;26679;-72
2021/04/07 07:03:29;;;;;;;2.63;2.10;;;;;;;1.90;100.00;102409.31;1843295;77;26256;-72
2021/04/07 07:06:00;;;;;;;6.20;1.80;;;;;;;2.00;100.00;102409.36;1843404;78;26266;-72
2021/04/07 07:08:33;;;;;;;4.30;2.00;;;;;;;2.12;100.00;102406.97;1843320;78;26244;-71
2021/04/07 07:11:12;;;;;;;3.30;1.80;;;;;;;2.20;100.00;102405.48;1843405;78;26695;-71
2021/04/07 07:13:43;;;;;;;3.83;1.60;;;;;;;2.29;100.00;102406.56;1843333;78;26248;-72
2021/04/07 07:16:14;;;;;;;3.80;2.20;;;;;;;2.40;100.00;102411.20;1843196;76;26259;-71
2021/04/07 07:18:44;;;;;;;2.80;1.57;;;;;;;2.42;100.00;102409.98;1843297;78;26305;-71
2021/04/07 07:21:19;;;;;;;2.70;1.80;;;;;;;2.45;100.00;102409.59;1843313;78;26790;-71
2021/04/07 07:23:50;;;;;;;4.47;1.43;;;;;;;2.55;100.00;102408.76;1843329;78;26209;-72
2021/04/07 07:26:21;;;;;;;2.60;1.43;;;;;;;2.61;100.00;102411.25;1843266;78;26332;-71
2021/04/07 07:28:55;;;;;;;1.93;1.70;;;;;;;2.68;100.00;102419.87;1843301;78;26691;-72
2021/04/07 07:31:26;;;;;;;2.57;1.40;;;;;;;2.85;100.00;102406.74;1843461;78;26811;-71
2021/04/07 07:33:58;;;;;;;5.57;1.90;;;;;;;2.91;100.00;102410.61;1843290;78;26810;-71
2021/04/07 07:36:30;;;;;;;3.00;1.40;;;;;;;3.02;100.00;102409.55;1843238;78;26639;-72
2021/04/07 07:39:01;;;;;;;3.33;1.77;;;;;;;3.21;100.00;102405.25;1843252;78;26322;-71
2021/04/07 07:41:35;;;;;;;3.27;1.77;;;;;;;3.27;100.00;102409.11;1843470;78;26204;-72
2021/04/07 07:44:06;;;;;;;3.47;1.93;;;;;;;3.48;100.00;102412.66;1843303;78;26739;-72
2021/04/07 07:46:37;;;;;;;2.93;1.40;;;;;;;3.52;100.00;102408.45;1843270;78;26237;-71
2021/04/07 07:49:16;;;;;;;2.20;1.77;;;;;;;3.71;100.00;102404.16;1843340;78;26285;-72
2021/04/07 07:51:47;;;;;;;3.40;1.70;;;;;;;3.87;100.00;102410.69;1843280;78;26280;-72
2021/04/07 07:54:19;;;;;;;4.37;1.60;;;;;;;4.32;100.00;102405.63;1843268;78;26765;-71
2021/04/07 07:56:50;;;;;;;3.20;1.57;;;;;;;4.28;100.00;102405.16;1843288;78;26714;-71
2021/04/07 07:59:30;;;;;;;4.53;1.57;;;;;;;4.37;100.00;102404.45;1843238;78;26702;-71
2021/04/07 08:02:01;;;;;;;7.43;2.03;;;;;;;4.75;100.00;102406.98;1843382;77;26240;-71
2021/04/07 08:04:32;;;;;;;8.60;2.07;;;;;;;4.98;100.00;102396.45;1843388;78;26330;-72
2021/04/07 08:07:02;;;;;;;4.30;1.83;;;;;;;5.05;100.00;102401.94;1843425;78;26207;-72
2021/04/07 08:09:32;;;;;;;3.07;1.43;;;;;;;5.05;100.00;102400.56;1843376;78;26772;-71
2021/04/07 08:12:01;;;;;;;7.63;1.97;;;;;;;4.74;100.00;102406.70;1843471;78;26728;-72
2021/04/07 08:14:31;;;;;;;4.47;1.60;;;;;;;4.86;100.00;102411.05;1843408;78;26237;-71
2021/04/07 08:17:01;;;;;;;3.60;2.20;;;;;;;4.93;100.00;102409.14;1843303;76;26349;-71
2021/04/07 08:19:33;;;;;;;4.43;1.90;;;;;;;4.78;100.00;102407.12;1843354;78;26325;-71
2021/04/07 08:22:04;;;;;;;5.47;2.00;;;;;;;4.91;100.00;102414.02;1843374;78;26647;-71
2021/04/07 08:24:36;;;;;;;3.07;1.97;;;;;;;4.97;100.00;102405.76;1843343;78;26790;-70
2021/04/07 08:27:08;;;;;;;2.77;1.90;;;;;;;5.07;100.00;102416.89;1843354;78;26247;-71
2021/04/07 08:29:41;;;;;;;4.47;1.80;;;;;;;5.02;100.00;102420.27;1843355;78;26251;-70
2021/04/07 08:32:11;;;;;;;2.70;1.80;;;;;;;5.04;100.00;102415.42;1843401;78;26318;-71
2021/04/07 08:34:41;;;;;;;5.40;1.80;;;;;;;5.28;100.00;102416.16;1843547;78;26211;-70
2021/04/07 08:37:14;;;;;;;5.43;2.00;;;;;;;5.19;100.00;102416.05;1843344;78;26320;-72
2021/04/07 08:39:45;;;;;;;3.63;1.73;;;;;;;5.30;100.00;102413.20;1843215;78;26293;-70
2021/04/07 08:42:15;;;;;;;2.90;1.33;;;;;;;5.23;100.00;102419.23;1843458;78;26281;-71
2021/04/07 08:44:47;;;;;;;4.43;2.13;;;;;;;5.21;100.00;102422.73;1843325;78;26710;-71
2021/04/07 08:47:28;;;;;;;2.47;1.47;;;;;;;5.36;100.00;102421.45;1843329;78;26280;-72
2021/04/07 08:50:04;;;;;;;6.23;1.97;;;;;;;5.42;100.00;102412.34;1843232;78;26211;-72
2021/04/07 08:52:42;;;;;;;4.53;1.57;;;;;;;5.40;100.00;102409.47;1843349;78;26236;-71
2021/04/07 08:55:19;;;;;;;3.87;1.80;;;;;;;5.49;100.00;102410.42;1843350;78;26330;-73
2021/04/07 08:58:01;;;;;;;4.70;1.60;;;;;;;5.73;100.00;102406.69;1843280;78;26219;-70
2021/04/07 09:00:34;;;;;;;3.93;1.93;;;;;;;5.79;100.00;102406.66;1843343;78;26323;-71
2021/04/07 09:03:14;;;;;;;4.63;1.70;;;;;;;6.07;100.00;102405.04;1843355;77;26246;-71
2021/04/07 09:05:46;;;;;;;5.07;1.83;;;;;;;5.94;100.00;102411.97;1843306;78;26703;-71
2021/04/07 09:08:17;;;;;;;4.83;2.00;;;;;;;5.92;100.00;102407.19;1843397;78;26654;-71
2021/04/07 09:10:49;;;;;;;4.87;1.90;;;;;;;6.02;100.00;102404.84;1843337;78;26727;-71
2021/04/07 09:13:22;;;;;;;5.20;2.00;;;;;;;6.27;100.00;102403.04;1843410;78;26736;-71
2021/04/07 09:15:55;;;;;;;4.67;1.90;;;;;;;6.15;100.00;102402.03;1843300;78;26691;-72
2021/04/07 09:18:37;;;;;;;3.93;1.27;;;;;;;6.32;100.00;102391.34;1843265;76;26674;-72
2021/04/07 09:21:09;;;;;;;3.47;1.00;;;;;;;6.72;100.00;102392.80;1843420;78;26331;-71
2021/04/07 09:23:40;;;;;;;1.70;0.87;;;;;;;6.95;100.00;102384.47;1843399;78;26300;-71
2021/04/07 09:26:12;;;;;;;2.73;1.30;;;;;;;6.74;100.00;102391.21;1843293;78;26231;-71
2021/04/07 09:28:44;;;;;;;3.60;1.33;;;;;;;6.84;100.00;102388.81;1843333;78;26260;-71
2021/04/07 09:31:18;;;;;;;2.07;1.20;;;;;;;6.98;100.00;102381.25;1843321;78;26314;-70
2021/04/07 09:33:49;;;;;;;2.30;0.97;;;;;;;7.14;100.00;102378.81;1843313;78;26250;-71
2021/04/07 09:36:21;;;;;;;2.77;1.00;;;;;;;7.33;100.00;102380.54;1843325;78;26224;-71
2021/04/07 09:38:54;;;;;;;2.37;0.80;;;;;;;7.50;100.00;102374.42;1843231;78;26215;-71
2021/04/07 09:41:26;;;;;;;1.97;0.90;;;;;;;7.46;100.00;102368.52;1843306;78;26326;-70
2021/04/07 09:43:58;;;;;;;4.20;1.27;;;;;;;7.30;100.00;102365.80;1843316;78;26330;-71
2021/04/07 09:46:28;;;;;;;2.73;1.27;;;;;;;7.06;100.00;102376.30;1843314;78;26291;-70
2021/04/07 09:49:00;;;;;;;2.97;0.90;;;;;;;7.11;100.00;102377.01;1843342;78;26237;-71
2021/04/07 09:51:33;;;;;;;3.43;0.93;;;;;;;6.91;100.00;102373.56;1843285;78;26222;-71
2021/04/07 09:54:15;;;;;;;1.97;0.90;;;;;;;6.89;100.00;102371.02;1843303;78;26678;-71
2021/04/07 09:56:57;;;;;;;3.63;1.17;;;;;;;6.90;100.00;102381.00;1843264;78;26244;-71
2021/04/07 09:59:35;;;;;;;3.07;0.87;;;;;;;6.93;100.00;102372.82;1843380;78;26212;-70
2021/04/07 10:02:07;;;;;;;1.83;0.90;;;;;;;7.10;100.00;102381.69;1843264;77;26343;-73
2021/04/07 10:04:38;;;;;;;3.57;1.10;;;;;;;7.02;100.00;102372.83;1843338;78;26664;-71
2021/04/07 10:07:16;;;;;;;1.63;0.87;;;;;;;7.06;100.00;102366.63;1843365;78;26693;-70
2021/04/07 10:09:48;;;;;;;2.03;0.80;;;;;;;6.86;100.00;102370.94;1843379;78;26237;-72
2021/04/07 10:12:19;;;;;;;4.40;1.00;;;;;;;6.92;100.00;102374.73;1843306;78;26240;-71
2021/04/07 10:14:51;;;;;;;1.43;0.60;;;;;;;6.85;100.00;102375.30;1843279;78;26792;-71
2021/04/07 10:17:22;;;;;;;3.33;0.70;;;;;;;6.80;100.00;102371.82;1843267;78;26667;-72
2021/04/07 10:19:53;;;;;;;1.50;0.70;;;;;;;6.82;100.00;102368.31;1843405;76;26270;-72
2021/04/07 10:22:25;;;;;;;1.50;0.60;;;;;;;6.88;100.00;102370.73;1843301;78;26224;-72
2021/04/07 10:25:00;;;;;;;1.60;0.73;;;;;;;6.85;100.00;102371.16;1843338;78;26235;-72
2021/04/07 10:27:30;;;;;;;1.67;0.90;;;;;;;6.94;99.33;102373.11;1843327;78;26244;-72
2021/04/07 10:30:08;;;;;;;3.30;1.10;;;;;;;6.85;98.82;102373.91;1843323;78;26318;-72
2021/04/07 10:32:43;;;;;;;6.70;0.90;;;;;;;6.81;100.00;102375.43;1843275;78;26267;-74
2021/04/07 10:35:19;;;;;;;3.03;0.80;;;;;;;6.96;100.00;102367.69;1843286;78;26762;-72
2021/04/07 10:37:55;;;;;;;2.93;0.70;;;;;;;7.02;100.00;102373.67;1843236;78;26304;-73
2021/04/07 10:40:28;;;;;;;2.93;0.80;;;;;;;7.05;100.00;102369.64;1843404;78;26226;-73
2021/04/07 10:42:58;;;;;;;2.87;0.87;;;;;;;7.10;100.00;102372.02;1843268;78;26401;-73
2021/04/07 10:45:28;;;;;;;1.30;0.90;;;;;;;6.94;100.00;102382.24;1843355;78;26324;-73
2021/04/07 10:48:05;;;;;;;2.13;1.00;;;;;;;6.84;100.00;102382.77;1843298;78;26374;-73
2021/04/07 10:50:38;;;;;;;3.77;0.90;;;;;;;6.83;100.00;102387.11;1843282;78;26247;-74
2021/04/07 10:53:09;;;;;;;3.00;0.90;;;;;;;6.87;100.00;102385.59;1843327;78;26749;-72
2021/04/07 10:55:39;;;;;;;3.43;0.80;;;;;;;6.88;100.00;102379.02;1843328;78;26306;-75
2021/04/07 10:58:11;;;;;;;3.30;1.10;;;;;;;6.84;100.00;102386.05;1843271;78;26227;-72
2021/04/07 11:00:42;;;;;;;3.40;1.03;;;;;;;6.81;100.00;102387.86;1843452;78;26273;-72
2021/04/07 11:03:12;;;;;;;2.13;0.90;;;;;;;6.82;100.00;102392.32;1843247;77;26256;-72
2021/04/07 11:05:44;;;;;;;2.77;1.10;;;;;;;6.85;100.00;102395.48;1843369;78;26207;-72
2021/04/07 11:08:16;;;;;;;3.23;0.93;;;;;;;7.06;100.00;102393.44;1843259;78;26247;-72
2021/04/07 11:10:48;;;;;;;4.37;1.03;;;;;;;7.10;100.00;102385.02;1843277;78;26239;-72
2021/04/07 11:13:21;;;;;;;3.57;1.20;;;;;;;7.04;100.00;102381.22;1843249;78;26291;-71
2021/04/07 11:15:51;;;;;;;2.83;1.00;;;;;;;7.01;100.00;102382.20;1843342;78;26296;-71
2021/04/07 11:18:30;;;;;;;3.40;1.03;;;;;;;6.94;97.40;102380.86;1843243;78;26710;-71
2021/04/07 11:21:00;;;;;;;2.17;1.03;;;;;;;7.84;100.00;102382.69;1843278;78;26769;-70
2021/04/07 11:23:30;;;;;;;3.23;1.00;;;;;;;7.65;94.27;102379.08;1843258;78;26679;-70
2021/04/07 11:26:00;;;;;;;2.70;0.90;;;;;;;7.19;100.00;102383.63;1843345;78;26220;-71
2021/04/07 11:28:30;;;;;;;2.83;1.00;;;;;;;7.01;100.00;102383.59;1843244;78;26204;-71
2021/04/07 11:31:05;;;;;;;2.00;0.90;;;;;;;7.00;100.00;102377.22;1843250;78;26232;-71
2021/04/07 11:33:40;;;;;;;5.30;1.00;;;;;;;7.21;100.00;102385.66;1842992;78;26341;-71
2021/04/07 11:36:19;;;;;;;4.23;1.00;;;;;;;7.23;100.00;102382.95;1843441;78;26262;-71
2021/04/07 11:38:50;;;;;;;0.97;0.70;;;;;;;7.18;100.00;102382.81;1842641;78;26301;-71
2021/04/07 11:46:55;;;;;;;3.00;0.70;;;;;;;7.76;94.22;102367.24;1843452;78;26231;-72
2021/04/07 11:49:25;;;;;;;0.97;0.73;;;;;;;7.76;96.19;102369.47;1843358;78;26249;-72